KSPW/SPW METAR and TAF weather

Enter ICAO airport designator
Station Type Date Time Source
KSPW METAR 2018/12/11 21:53 UTC NOAA

KSPW 112153Z AUTO 09004KT 8SM CLR M03/M06 A2985 RMK AO2 SLP129 T10331056


Station Type Date Time Source
KSPW Decoded METAR 2018/12/11 21:53 UTC NOAA

SPENCER MUNICIPAL AIRPORT, IA, United States (KSPW) 43-10N 95-13W 403M
Dec 11, 2018 - 04:53 PM EST / 2018.12.11 2153 UTC
Wind: from the E (090 degrees) at 5 MPH (4 KT):0
Visibility: 8 mile(s):0
Sky conditions: clear
Temperature: 26.1 F (-3.3 C)
Windchill: 19 F (-7 C):1
Dew Point: 21.9 F (-5.6 C)
Relative Humidity: 84%
Pressure (altimeter): 29.85 in. Hg (1010 hPa)
ob: KSPW 112153Z AUTO 09004KT 8SM CLR M03/M06 A2985 RMK AO2 SLP129 T10331056
cycle: 22

Station Type Date Time Source
KSPW TAF UTC NOAA

Error!


Example: see airport list